sensor_id;sensor_type;location;lat;lon;timestamp;P1;durP1;ratioP1;P2;durP2;ratioP2
5257;SDS011;2651;51.594;9.928;2022-12-01T00:00:54;66.07;;;31.50;;
5257;SDS011;2651;51.594;9.928;2022-12-01T00:01:56;63.72;;;31.65;;
5257;SDS011;2651;51.594;9.928;2022-12-01T00:02:57;76.53;;;32.90;;
5257;SDS011;2651;51.594;9.928;2022-12-01T00:03:59;72.28;;;32.00;;
5257;SDS011;2651;51.594;9.928;2022-12-01T00:05:01;72.90;;;32.63;;
5257;SDS011;2651;51.594;9.928;2022-12-01T00:07:06;69.05;;;32.03;;
5257;SDS011;2651;51.594;9.928;2022-12-01T00:08:07;65.32;;;33.25;;
5257;SDS011;2651;51.594;9.928;2022-12-01T00:09:09;73.75;;;34.75;;
5257;SDS011;2651;51.594;9.928;2022-12-01T00:10:33;66.45;;;30.95;;
5257;SDS011;2651;51.594;9.928;2022-12-01T00:11:36;73.75;;;32.15;;
5257;SDS011;2651;51.594;9.928;2022-12-01T00:12:38;67.05;;;32.00;;
5257;SDS011;2651;51.594;9.928;2022-12-01T00:13:43;72.80;;;32.45;;
5257;SDS011;2651;51.594;9.928;2022-12-01T00:14:45;71.53;;;32.13;;
5257;SDS011;2651;51.594;9.928;2022-12-01T00:15:54;74.05;;;32.97;;
5257;SDS011;2651;51.594;9.928;2022-12-01T00:16:56;67.25;;;32.58;;
5257;SDS011;2651;51.594;9.928;2022-12-01T00:17:58;69.28;;;31.30;;
5257;SDS011;2651;51.594;9.928;2022-12-01T00:19:00;84.70;;;33.80;;
5257;SDS011;2651;51.594;9.928;2022-12-01T00:20:02;71.43;;;33.35;;
5257;SDS011;2651;51.594;9.928;2022-12-01T00:21:05;70.90;;;31.83;;
5257;SDS011;2651;51.594;9.928;2022-12-01T00:22:13;71.45;;;32.95;;
5257;SDS011;2651;51.594;9.928;2022-12-01T00:23:15;80.93;;;34.47;;
5257;SDS011;2651;51.594;9.928;2022-12-01T00:24:17;66.30;;;31.40;;
5257;SDS011;2651;51.594;9.928;2022-12-01T00:25:19;71.20;;;32.15;;
5257;SDS011;2651;51.594;9.928;2022-12-01T00:26:21;71.32;;;33.28;;
5257;SDS011;2651;51.594;9.928;2022-12-01T00:27:24;70.50;;;32.50;;
5257;SDS011;2651;51.594;9.928;2022-12-01T00:28:25;67.10;;;32.38;;
5257;SDS011;2651;51.594;9.928;2022-12-01T00:29:27;72.90;;;31.58;;
5257;SDS011;2651;51.594;9.928;2022-12-01T00:30:28;63.15;;;31.70;;
5257;SDS011;2651;51.594;9.928;2022-12-01T00:31:30;66.95;;;32.92;;
5257;SDS011;2651;51.594;9.928;2022-12-01T00:32:32;71.00;;;33.00;;
5257;SDS011;2651;51.594;9.928;2022-12-01T00:33:34;72.00;;;32.97;;
5257;SDS011;2651;51.594;9.928;2022-12-01T00:34:35;75.85;;;34.85;;
5257;SDS011;2651;51.594;9.928;2022-12-01T00:35:38;75.88;;;33.65;;
5257;SDS011;2651;51.594;9.928;2022-12-01T00:36:39;69.75;;;31.60;;
5257;SDS011;2651;51.594;9.928;2022-12-01T00:37:41;70.03;;;31.45;;
5257;SDS011;2651;51.594;9.928;2022-12-01T00:38:44;69.38;;;32.90;;
5257;SDS011;2651;51.594;9.928;2022-12-01T00:39:46;75.70;;;32.17;;
5257;SDS011;2651;51.594;9.928;2022-12-01T00:40:48;64.25;;;31.45;;
5257;SDS011;2651;51.594;9.928;2022-12-01T00:41:49;68.22;;;30.75;;
5257;SDS011;2651;51.594;9.928;2022-12-01T00:42:51;75.32;;;33.97;;
5257;SDS011;2651;51.594;9.928;2022-12-01T00:43:53;67.57;;;31.67;;
5257;SDS011;2651;51.594;9.928;2022-12-01T00:44:54;64.40;;;30.95;;
5257;SDS011;2651;51.594;9.928;2022-12-01T00:45:56;64.40;;;32.25;;
5257;SDS011;2651;51.594;9.928;2022-12-01T00:46:58;67.97;;;31.52;;
5257;SDS011;2651;51.594;9.928;2022-12-01T00:48:00;71.22;;;31.85;;
5257;SDS011;2651;51.594;9.928;2022-12-01T00:49:01;62.78;;;31.30;;
5257;SDS011;2651;51.594;9.928;2022-12-01T00:50:03;73.82;;;34.85;;
5257;SDS011;2651;51.594;9.928;2022-12-01T00:51:05;64.72;;;33.38;;
5257;SDS011;2651;51.594;9.928;2022-12-01T00:52:07;64.95;;;33.05;;
5257;SDS011;2651;51.594;9.928;2022-12-01T00:53:09;67.32;;;32.45;;
5257;SDS011;2651;51.594;9.928;2022-12-01T00:54:11;69.43;;;32.50;;
5257;SDS011;2651;51.594;9.928;2022-12-01T00:55:12;67.22;;;31.40;;
5257;SDS011;2651;51.594;9.928;2022-12-01T00:56:14;64.85;;;32.40;;
5257;SDS011;2651;51.594;9.928;2022-12-01T00:57:15;65.70;;;32.25;;
5257;SDS011;2651;51.594;9.928;2022-12-01T00:58:17;67.90;;;31.98;;
5257;SDS011;2651;51.594;9.928;2022-12-01T00:59:19;75.15;;;34.30;;
5257;SDS011;2651;51.594;9.928;2022-12-01T01:00:20;75.57;;;34.78;;
5257;SDS011;2651;51.594;9.928;2022-12-01T01:01:22;70.30;;;35.40;;
5257;SDS011;2651;51.594;9.928;2022-12-01T01:02:24;66.10;;;33.60;;
5257;SDS011;2651;51.594;9.928;2022-12-01T01:03:26;74.43;;;33.65;;
5257;SDS011;2651;51.594;9.928;2022-12-01T01:04:28;70.80;;;32.72;;
5257;SDS011;2651;51.594;9.928;2022-12-01T01:05:34;65.95;;;33.00;;
5257;SDS011;2651;51.594;9.928;2022-12-01T01:06:36;62.53;;;31.58;;
5257;SDS011;2651;51.594;9.928;2022-12-01T01:07:38;67.53;;;32.17;;
5257;SDS011;2651;51.594;9.928;2022-12-01T01:08:40;61.03;;;31.80;;
5257;SDS011;2651;51.594;9.928;2022-12-01T01:09:41;69.80;;;32.78;;
5257;SDS011;2651;51.594;9.928;2022-12-01T01:10:44;64.45;;;31.10;;
5257;SDS011;2651;51.594;9.928;2022-12-01T01:11:47;59.95;;;31.13;;
5257;SDS011;2651;51.594;9.928;2022-12-01T01:12:49;62.03;;;30.27;;
5257;SDS011;2651;51.594;9.928;2022-12-01T01:13:50;73.07;;;34.95;;
5257;SDS011;2651;51.594;9.928;2022-12-01T01:14:52;70.97;;;32.15;;
5257;SDS011;2651;51.594;9.928;2022-12-01T01:16:01;65.78;;;33.03;;
5257;SDS011;2651;51.594;9.928;2022-12-01T01:17:04;65.28;;;30.20;;
5257;SDS011;2651;51.594;9.928;2022-12-01T01:18:06;70.78;;;32.67;;
5257;SDS011;2651;51.594;9.928;2022-12-01T01:19:09;68.53;;;31.50;;
5257;SDS011;2651;51.594;9.928;2022-12-01T01:20:11;63.33;;;33.05;;
5257;SDS011;2651;51.594;9.928;2022-12-01T01:21:14;74.10;;;34.00;;
5257;SDS011;2651;51.594;9.928;2022-12-01T01:22:17;66.07;;;32.10;;
5257;SDS011;2651;51.594;9.928;2022-12-01T01:23:19;62.20;;;31.05;;
5257;SDS011;2651;51.594;9.928;2022-12-01T01:24:20;73.43;;;31.95;;
5257;SDS011;2651;51.594;9.928;2022-12-01T01:25:22;69.82;;;33.13;;
5257;SDS011;2651;51.594;9.928;2022-12-01T01:26:25;68.05;;;32.38;;
5257;SDS011;2651;51.594;9.928;2022-12-01T01:27:29;71.13;;;32.05;;
5257;SDS011;2651;51.594;9.928;2022-12-01T01:28:30;70.47;;;33.50;;
5257;SDS011;2651;51.594;9.928;2022-12-01T01:29:32;61.92;;;32.08;;
5257;SDS011;2651;51.594;9.928;2022-12-01T01:30:37;64.43;;;32.95;;
5257;SDS011;2651;51.594;9.928;2022-12-01T01:31:39;63.30;;;32.45;;
5257;SDS011;2651;51.594;9.928;2022-12-01T01:32:41;66.30;;;33.25;;
5257;SDS011;2651;51.594;9.928;2022-12-01T01:33:43;61.60;;;30.77;;
5257;SDS011;2651;51.594;9.928;2022-12-01T01:34:45;60.47;;;31.25;;
5257;SDS011;2651;51.594;9.928;2022-12-01T01:35:46;68.07;;;33.33;;
5257;SDS011;2651;51.594;9.928;2022-12-01T01:36:48;64.90;;;33.38;;
5257;SDS011;2651;51.594;9.928;2022-12-01T01:37:50;73.43;;;32.60;;
5257;SDS011;2651;51.594;9.928;2022-12-01T01:38:52;67.90;;;32.15;;
5257;SDS011;2651;51.594;9.928;2022-12-01T01:39:55;64.38;;;31.02;;
5257;SDS011;2651;51.594;9.928;2022-12-01T01:40:56;67.00;;;31.85;;
5257;SDS011;2651;51.594;9.928;2022-12-01T01:41:58;60.70;;;30.45;;
5257;SDS011;2651;51.594;9.928;2022-12-01T01:43:00;60.67;;;31.02;;
5257;SDS011;2651;51.594;9.928;2022-12-01T01:44:01;68.97;;;32.38;;
5257;SDS011;2651;51.594;9.928;2022-12-01T01:45:03;58.53;;;30.83;;
5257;SDS011;2651;51.594;9.928;2022-12-01T01:46:22;66.55;;;32.00;;
5257;SDS011;2651;51.594;9.928;2022-12-01T01:47:29;72.22;;;31.88;;
5257;SDS011;2651;51.594;9.928;2022-12-01T01:48:35;62.50;;;30.35;;
5257;SDS011;2651;51.594;9.928;2022-12-01T01:49:40;63.90;;;30.75;;
5257;SDS011;2651;51.594;9.928;2022-12-01T01:50:42;66.45;;;31.15;;
5257;SDS011;2651;51.594;9.928;2022-12-01T01:51:48;63.85;;;31.77;;
5257;SDS011;2651;51.594;9.928;2022-12-01T01:52:55;65.45;;;32.13;;
5257;SDS011;2651;51.594;9.928;2022-12-01T01:54:02;69.20;;;28.75;;
5257;SDS011;2651;51.594;9.928;2022-12-01T01:55:08;61.92;;;30.50;;
5257;SDS011;2651;51.594;9.928;2022-12-01T01:56:09;65.57;;;31.50;;
5257;SDS011;2651;51.594;9.928;2022-12-01T01:57:12;64.68;;;30.10;;
5257;SDS011;2651;51.594;9.928;2022-12-01T01:58:16;70.03;;;30.75;;
5257;SDS011;2651;51.594;9.928;2022-12-01T01:59:24;61.55;;;31.63;;
5257;SDS011;2651;51.594;9.928;2022-12-01T02:00:29;65.50;;;31.15;;
5257;SDS011;2651;51.594;9.928;2022-12-01T02:01:31;65.65;;;29.92;;
5257;SDS011;2651;51.594;9.928;2022-12-01T02:02:35;62.10;;;30.35;;
5257;SDS011;2651;51.594;9.928;2022-12-01T02:03:45;57.20;;;30.58;;
5257;SDS011;2651;51.594;9.928;2022-12-01T02:04:50;61.85;;;30.38;;
5257;SDS011;2651;51.594;9.928;2022-12-01T02:05:56;52.92;;;28.92;;
5257;SDS011;2651;51.594;9.928;2022-12-01T02:07:05;59.47;;;28.92;;
5257;SDS011;2651;51.594;9.928;2022-12-01T02:08:08;57.42;;;28.77;;
5257;SDS011;2651;51.594;9.928;2022-12-01T02:09:12;56.72;;;29.27;;
5257;SDS011;2651;51.594;9.928;2022-12-01T02:10:16;62.60;;;30.20;;
5257;SDS011;2651;51.594;9.928;2022-12-01T02:12:39;59.05;;;30.10;;
5257;SDS011;2651;51.594;9.928;2022-12-01T02:14:02;54.90;;;25.90;;
5257;SDS011;2651;51.594;9.928;2022-12-01T02:15:27;64.45;;;30.08;;
5257;SDS011;2651;51.594;9.928;2022-12-01T02:17:16;64.55;;;27.52;;
5257;SDS011;2651;51.594;9.928;2022-12-01T02:18:21;58.70;;;27.50;;
5257;SDS011;2651;51.594;9.928;2022-12-01T02:21:31;55.97;;;27.40;;
5257;SDS011;2651;51.594;9.928;2022-12-01T02:28:15;58.17;;;29.55;;
5257;SDS011;2651;51.594;9.928;2022-12-01T02:30:44;65.50;;;29.80;;
5257;SDS011;2651;51.594;9.928;2022-12-01T02:32:14;55.38;;;27.35;;
5257;SDS011;2651;51.594;9.928;2022-12-01T02:35:02;63.08;;;28.17;;
5257;SDS011;2651;51.594;9.928;2022-12-01T02:36:27;61.15;;;27.77;;
5257;SDS011;2651;51.594;9.928;2022-12-01T02:37:41;56.17;;;27.75;;
5257;SDS011;2651;51.594;9.928;2022-12-01T02:40:19;59.97;;;27.70;;
5257;SDS011;2651;51.594;9.928;2022-12-01T02:41:49;54.38;;;26.42;;
5257;SDS011;2651;51.594;9.928;2022-12-01T02:44:38;56.25;;;27.70;;
5257;SDS011;2651;51.594;9.928;2022-12-01T02:45:53;63.95;;;28.83;;
5257;SDS011;2651;51.594;9.928;2022-12-01T02:47:14;68.05;;;28.88;;
5257;SDS011;2651;51.594;9.928;2022-12-01T02:48:20;59.72;;;28.83;;
5257;SDS011;2651;51.594;9.928;2022-12-01T02:49:24;58.03;;;29.00;;
5257;SDS011;2651;51.594;9.928;2022-12-01T02:50:30;53.60;;;26.15;;
5257;SDS011;2651;51.594;9.928;2022-12-01T02:51:34;47.00;;;24.98;;
5257;SDS011;2651;51.594;9.928;2022-12-01T02:52:40;46.05;;;25.02;;
5257;SDS011;2651;51.594;9.928;2022-12-01T02:53:43;50.72;;;26.65;;
5257;SDS011;2651;51.594;9.928;2022-12-01T02:54:45;51.95;;;26.45;;
5257;SDS011;2651;51.594;9.928;2022-12-01T02:55:50;45.60;;;23.65;;
5257;SDS011;2651;51.594;9.928;2022-12-01T02:56:54;46.72;;;24.90;;
5257;SDS011;2651;51.594;9.928;2022-12-01T02:57:55;49.00;;;26.30;;
5257;SDS011;2651;51.594;9.928;2022-12-01T02:58:57;47.35;;;25.60;;
5257;SDS011;2651;51.594;9.928;2022-12-01T02:59:58;51.75;;;25.40;;
5257;SDS011;2651;51.594;9.928;2022-12-01T03:02:05;48.13;;;26.35;;
5257;SDS011;2651;51.594;9.928;2022-12-01T03:05:57;51.35;;;25.10;;
5257;SDS011;2651;51.594;9.928;2022-12-01T03:10:04;54.03;;;26.20;;
5257;SDS011;2651;51.594;9.928;2022-12-01T03:11:17;46.15;;;23.17;;
5257;SDS011;2651;51.594;9.928;2022-12-01T03:12:31;45.33;;;21.98;;
5257;SDS011;2651;51.594;9.928;2022-12-01T03:13:44;47.65;;;23.77;;
5257;SDS011;2651;51.594;9.928;2022-12-01T03:15:11;45.78;;;23.75;;
5257;SDS011;2651;51.594;9.928;2022-12-01T03:16:38;45.13;;;22.55;;
5257;SDS011;2651;51.594;9.928;2022-12-01T03:21:51;43.38;;;22.98;;
5257;SDS011;2651;51.594;9.928;2022-12-01T03:23:11;42.38;;;22.83;;
5257;SDS011;2651;51.594;9.928;2022-12-01T03:24:17;56.28;;;21.98;;
5257;SDS011;2651;51.594;9.928;2022-12-01T03:25:21;44.75;;;22.38;;
5257;SDS011;2651;51.594;9.928;2022-12-01T03:26:28;38.63;;;22.88;;
5257;SDS011;2651;51.594;9.928;2022-12-01T03:27:33;43.33;;;23.33;;
5257;SDS011;2651;51.594;9.928;2022-12-01T03:28:41;41.22;;;22.60;;
5257;SDS011;2651;51.594;9.928;2022-12-01T03:29:48;41.00;;;23.00;;
5257;SDS011;2651;51.594;9.928;2022-12-01T03:30:54;45.78;;;23.67;;
5257;SDS011;2651;51.594;9.928;2022-12-01T03:32:01;39.85;;;21.90;;
5257;SDS011;2651;51.594;9.928;2022-12-01T03:33:09;38.97;;;21.90;;
5257;SDS011;2651;51.594;9.928;2022-12-01T03:35:31;37.10;;;20.08;;
5257;SDS011;2651;51.594;9.928;2022-12-01T03:36:38;34.47;;;19.73;;
5257;SDS011;2651;51.594;9.928;2022-12-01T03:37:55;40.95;;;21.95;;
5257;SDS011;2651;51.594;9.928;2022-12-01T03:39:06;37.70;;;20.83;;
5257;SDS011;2651;51.594;9.928;2022-12-01T03:40:13;35.88;;;20.98;;
5257;SDS011;2651;51.594;9.928;2022-12-01T03:41:19;36.83;;;19.52;;
5257;SDS011;2651;51.594;9.928;2022-12-01T03:43:40;35.42;;;20.15;;
5257;SDS011;2651;51.594;9.928;2022-12-01T03:44:47;32.97;;;19.98;;
5257;SDS011;2651;51.594;9.928;2022-12-01T03:45:54;32.90;;;19.58;;
5257;SDS011;2651;51.594;9.928;2022-12-01T03:46:59;36.47;;;21.00;;
5257;SDS011;2651;51.594;9.928;2022-12-01T03:48:04;37.08;;;20.08;;
5257;SDS011;2651;51.594;9.928;2022-12-01T03:49:07;33.28;;;19.92;;
5257;SDS011;2651;51.594;9.928;2022-12-01T03:50:09;38.95;;;21.20;;
5257;SDS011;2651;51.594;9.928;2022-12-01T03:51:20;31.65;;;20.38;;
5257;SDS011;2651;51.594;9.928;2022-12-01T03:54:07;37.58;;;19.85;;
5257;SDS011;2651;51.594;9.928;2022-12-01T03:55:18;32.60;;;18.98;;
5257;SDS011;2651;51.594;9.928;2022-12-01T03:56:22;31.65;;;19.05;;
5257;SDS011;2651;51.594;9.928;2022-12-01T03:57:28;31.85;;;20.00;;
5257;SDS011;2651;51.594;9.928;2022-12-01T03:58:38;38.40;;;21.75;;
5257;SDS011;2651;51.594;9.928;2022-12-01T03:59:44;34.05;;;20.45;;
5257;SDS011;2651;51.594;9.928;2022-12-01T04:00:48;34.58;;;20.40;;
5257;SDS011;2651;51.594;9.928;2022-12-01T04:01:53;37.67;;;21.38;;
5257;SDS011;2651;51.594;9.928;2022-12-01T04:02:58;37.67;;;21.33;;
5257;SDS011;2651;51.594;9.928;2022-12-01T04:04:05;35.70;;;21.17;;
5257;SDS011;2651;51.594;9.928;2022-12-01T04:05:08;39.13;;;21.02;;
5257;SDS011;2651;51.594;9.928;2022-12-01T04:06:09;39.20;;;21.75;;
5257;SDS011;2651;51.594;9.928;2022-12-01T04:07:11;42.33;;;22.30;;
5257;SDS011;2651;51.594;9.928;2022-12-01T04:08:14;38.40;;;22.25;;
5257;SDS011;2651;51.594;9.928;2022-12-01T04:09:16;36.28;;;21.58;;
5257;SDS011;2651;51.594;9.928;2022-12-01T04:10:17;37.92;;;22.58;;
5257;SDS011;2651;51.594;9.928;2022-12-01T04:11:19;40.28;;;22.63;;
5257;SDS011;2651;51.594;9.928;2022-12-01T04:12:39;39.85;;;21.67;;
5257;SDS011;2651;51.594;9.928;2022-12-01T04:13:41;40.10;;;22.80;;
5257;SDS011;2651;51.594;9.928;2022-12-01T04:14:42;36.70;;;20.65;;
5257;SDS011;2651;51.594;9.928;2022-12-01T04:15:44;42.28;;;23.17;;
5257;SDS011;2651;51.594;9.928;2022-12-01T04:16:46;33.67;;;20.30;;
5257;SDS011;2651;51.594;9.928;2022-12-01T04:17:48;34.03;;;20.05;;
5257;SDS011;2651;51.594;9.928;2022-12-01T04:18:49;36.90;;;20.20;;
5257;SDS011;2651;51.594;9.928;2022-12-01T04:19:51;35.08;;;19.15;;
5257;SDS011;2651;51.594;9.928;2022-12-01T04:20:53;33.22;;;20.25;;
5257;SDS011;2651;51.594;9.928;2022-12-01T04:21:54;29.95;;;18.30;;
5257;SDS011;2651;51.594;9.928;2022-12-01T04:22:56;34.38;;;19.98;;
5257;SDS011;2651;51.594;9.928;2022-12-01T04:23:57;34.10;;;18.58;;
5257;SDS011;2651;51.594;9.928;2022-12-01T04:25:03;32.42;;;18.80;;
5257;SDS011;2651;51.594;9.928;2022-12-01T04:26:06;35.05;;;18.80;;
5257;SDS011;2651;51.594;9.928;2022-12-01T04:27:15;36.38;;;18.65;;
5257;SDS011;2651;51.594;9.928;2022-12-01T04:28:17;34.47;;;18.88;;
5257;SDS011;2651;51.594;9.928;2022-12-01T04:29:18;29.88;;;17.70;;
5257;SDS011;2651;51.594;9.928;2022-12-01T04:30:20;33.15;;;18.92;;
5257;SDS011;2651;51.594;9.928;2022-12-01T04:31:22;26.58;;;15.68;;
5257;SDS011;2651;51.594;9.928;2022-12-01T04:32:23;25.83;;;16.10;;
5257;SDS011;2651;51.594;9.928;2022-12-01T04:33:27;27.27;;;16.75;;
5257;SDS011;2651;51.594;9.928;2022-12-01T04:34:29;29.40;;;17.75;;
5257;SDS011;2651;51.594;9.928;2022-12-01T04:35:31;30.33;;;18.63;;
5257;SDS011;2651;51.594;9.928;2022-12-01T04:36:33;27.92;;;16.73;;
5257;SDS011;2651;51.594;9.928;2022-12-01T04:37:35;33.50;;;18.52;;
5257;SDS011;2651;51.594;9.928;2022-12-01T04:38:37;30.90;;;17.65;;
5257;SDS011;2651;51.594;9.928;2022-12-01T04:39:38;26.35;;;16.52;;
5257;SDS011;2651;51.594;9.928;2022-12-01T04:40:42;25.45;;;15.88;;
5257;SDS011;2651;51.594;9.928;2022-12-01T04:41:43;29.95;;;18.27;;
5257;SDS011;2651;51.594;9.928;2022-12-01T04:42:45;30.95;;;17.45;;
5257;SDS011;2651;51.594;9.928;2022-12-01T04:43:47;29.92;;;17.58;;
5257;SDS011;2651;51.594;9.928;2022-12-01T04:44:48;30.35;;;17.77;;
5257;SDS011;2651;51.594;9.928;2022-12-01T04:45:50;28.52;;;16.92;;
5257;SDS011;2651;51.594;9.928;2022-12-01T04:46:52;28.85;;;17.40;;
5257;SDS011;2651;51.594;9.928;2022-12-01T04:47:54;31.80;;;18.48;;
5257;SDS011;2651;51.594;9.928;2022-12-01T04:48:55;31.65;;;18.13;;
5257;SDS011;2651;51.594;9.928;2022-12-01T04:49:57;33.55;;;17.92;;
5257;SDS011;2651;51.594;9.928;2022-12-01T04:50:59;31.58;;;18.33;;
5257;SDS011;2651;51.594;9.928;2022-12-01T04:52:00;33.65;;;18.77;;
5257;SDS011;2651;51.594;9.928;2022-12-01T04:53:02;29.80;;;17.55;;
5257;SDS011;2651;51.594;9.928;2022-12-01T04:54:04;27.95;;;18.45;;
5257;SDS011;2651;51.594;9.928;2022-12-01T04:55:06;29.35;;;17.55;;
5257;SDS011;2651;51.594;9.928;2022-12-01T04:56:08;33.75;;;20.77;;
5257;SDS011;2651;51.594;9.928;2022-12-01T04:57:10;33.00;;;19.25;;
5257;SDS011;2651;51.594;9.928;2022-12-01T04:58:12;38.15;;;22.80;;
5257;SDS011;2651;51.594;9.928;2022-12-01T04:59:14;31.63;;;21.00;;
5257;SDS011;2651;51.594;9.928;2022-12-01T05:00:16;32.22;;;18.20;;
5257;SDS011;2651;51.594;9.928;2022-12-01T05:01:18;32.13;;;17.63;;
5257;SDS011;2651;51.594;9.928;2022-12-01T05:02:20;29.88;;;17.60;;
5257;SDS011;2651;51.594;9.928;2022-12-01T05:03:21;25.73;;;16.25;;
5257;SDS011;2651;51.594;9.928;2022-12-01T05:04:23;30.50;;;17.17;;
5257;SDS011;2651;51.594;9.928;2022-12-01T05:05:25;30.98;;;18.55;;
5257;SDS011;2651;51.594;9.928;2022-12-01T05:06:27;32.28;;;19.15;;
5257;SDS011;2651;51.594;9.928;2022-12-01T05:07:29;28.77;;;18.92;;
5257;SDS011;2651;51.594;9.928;2022-12-01T05:08:31;31.98;;;17.92;;
5257;SDS011;2651;51.594;9.928;2022-12-01T05:09:34;32.72;;;18.98;;
5257;SDS011;2651;51.594;9.928;2022-12-01T05:10:36;39.60;;;26.85;;
5257;SDS011;2651;51.594;9.928;2022-12-01T05:11:38;38.13;;;24.00;;
5257;SDS011;2651;51.594;9.928;2022-12-01T05:12:40;38.85;;;23.10;;
5257;SDS011;2651;51.594;9.928;2022-12-01T05:13:42;30.58;;;19.20;;
5257;SDS011;2651;51.594;9.928;2022-12-01T05:14:45;31.17;;;18.45;;
5257;SDS011;2651;51.594;9.928;2022-12-01T05:15:46;35.08;;;19.70;;
5257;SDS011;2651;51.594;9.928;2022-12-01T05:16:49;31.42;;;20.38;;
5257;SDS011;2651;51.594;9.928;2022-12-01T05:17:51;36.60;;;18.95;;
5257;SDS011;2651;51.594;9.928;2022-12-01T05:18:54;28.38;;;18.33;;
5257;SDS011;2651;51.594;9.928;2022-12-01T05:20:21;32.22;;;19.77;;
5257;SDS011;2651;51.594;9.928;2022-12-01T05:21:43;31.48;;;18.60;;
5257;SDS011;2651;51.594;9.928;2022-12-01T05:22:46;36.03;;;19.05;;
5257;SDS011;2651;51.594;9.928;2022-12-01T05:24:06;29.13;;;16.77;;
5257;SDS011;2651;51.594;9.928;2022-12-01T05:25:08;29.67;;;17.88;;
5257;SDS011;2651;51.594;9.928;2022-12-01T05:26:10;33.67;;;17.65;;
5257;SDS011;2651;51.594;9.928;2022-12-01T05:27:12;35.53;;;19.98;;
5257;SDS011;2651;51.594;9.928;2022-12-01T05:28:13;32.22;;;19.70;;
5257;SDS011;2651;51.594;9.928;2022-12-01T05:29:15;31.52;;;18.30;;
5257;SDS011;2651;51.594;9.928;2022-12-01T05:30:17;32.13;;;19.05;;
5257;SDS011;2651;51.594;9.928;2022-12-01T05:31:18;33.88;;;19.80;;
5257;SDS011;2651;51.594;9.928;2022-12-01T05:32:20;33.08;;;19.80;;
5257;SDS011;2651;51.594;9.928;2022-12-01T05:33:23;33.30;;;18.20;;
5257;SDS011;2651;51.594;9.928;2022-12-01T05:34:25;35.38;;;20.30;;
5257;SDS011;2651;51.594;9.928;2022-12-01T05:35:27;37.35;;;18.33;;
5257;SDS011;2651;51.594;9.928;2022-12-01T05:36:28;33.92;;;19.30;;
5257;SDS011;2651;51.594;9.928;2022-12-01T05:37:30;35.50;;;20.42;;
5257;SDS011;2651;51.594;9.928;2022-12-01T05:38:34;40.25;;;20.17;;
5257;SDS011;2651;51.594;9.928;2022-12-01T05:39:36;36.88;;;21.35;;
5257;SDS011;2651;51.594;9.928;2022-12-01T05:40:37;35.90;;;20.15;;
5257;SDS011;2651;51.594;9.928;2022-12-01T05:41:39;33.28;;;18.67;;
5257;SDS011;2651;51.594;9.928;2022-12-01T05:42:41;35.70;;;17.75;;
5257;SDS011;2651;51.594;9.928;2022-12-01T05:43:42;30.95;;;18.50;;
5257;SDS011;2651;51.594;9.928;2022-12-01T05:44:44;34.45;;;18.33;;
5257;SDS011;2651;51.594;9.928;2022-12-01T05:45:46;36.08;;;18.83;;
5257;SDS011;2651;51.594;9.928;2022-12-01T05:46:50;30.42;;;16.73;;
5257;SDS011;2651;51.594;9.928;2022-12-01T05:47:54;36.75;;;17.73;;
5257;SDS011;2651;51.594;9.928;2022-12-01T05:48:57;32.28;;;18.15;;
5257;SDS011;2651;51.594;9.928;2022-12-01T05:49:59;34.13;;;18.67;;
5257;SDS011;2651;51.594;9.928;2022-12-01T05:51:13;36.10;;;19.98;;
5257;SDS011;2651;51.594;9.928;2022-12-01T05:52:16;33.17;;;18.73;;
5257;SDS011;2651;51.594;9.928;2022-12-01T05:53:18;34.28;;;19.13;;
5257;SDS011;2651;51.594;9.928;2022-12-01T05:54:19;36.75;;;19.48;;
5257;SDS011;2651;51.594;9.928;2022-12-01T05:55:21;28.83;;;17.70;;
5257;SDS011;2651;51.594;9.928;2022-12-01T05:56:22;32.67;;;18.52;;
5257;SDS011;2651;51.594;9.928;2022-12-01T05:57:24;29.00;;;16.83;;
5257;SDS011;2651;51.594;9.928;2022-12-01T05:58:26;31.58;;;17.73;;
5257;SDS011;2651;51.594;9.928;2022-12-01T05:59:27;31.35;;;18.45;;
5257;SDS011;2651;51.594;9.928;2022-12-01T06:00:29;31.92;;;18.50;;
5257;SDS011;2651;51.594;9.928;2022-12-01T06:01:31;37.72;;;19.98;;
5257;SDS011;2651;51.594;9.928;2022-12-01T06:02:32;44.00;;;18.67;;
5257;SDS011;2651;51.594;9.928;2022-12-01T06:03:34;33.05;;;18.35;;
5257;SDS011;2651;51.594;9.928;2022-12-01T06:04:35;33.95;;;19.23;;
5257;SDS011;2651;51.594;9.928;2022-12-01T06:05:37;30.85;;;17.67;;
5257;SDS011;2651;51.594;9.928;2022-12-01T06:06:39;31.65;;;17.92;;
5257;SDS011;2651;51.594;9.928;2022-12-01T06:07:41;38.92;;;18.90;;
5257;SDS011;2651;51.594;9.928;2022-12-01T06:08:43;33.70;;;18.67;;
5257;SDS011;2651;51.594;9.928;2022-12-01T06:09:44;38.78;;;19.00;;
5257;SDS011;2651;51.594;9.928;2022-12-01T06:10:46;31.67;;;19.08;;
5257;SDS011;2651;51.594;9.928;2022-12-01T06:11:48;33.20;;;18.08;;
5257;SDS011;2651;51.594;9.928;2022-12-01T06:12:52;35.95;;;18.90;;
5257;SDS011;2651;51.594;9.928;2022-12-01T06:13:54;32.60;;;18.75;;
5257;SDS011;2651;51.594;9.928;2022-12-01T06:14:56;33.80;;;19.60;;
5257;SDS011;2651;51.594;9.928;2022-12-01T06:15:58;34.83;;;20.00;;
5257;SDS011;2651;51.594;9.928;2022-12-01T06:17:01;32.55;;;18.85;;
5257;SDS011;2651;51.594;9.928;2022-12-01T06:18:02;34.85;;;18.52;;
5257;SDS011;2651;51.594;9.928;2022-12-01T06:19:04;34.45;;;19.05;;
5257;SDS011;2651;51.594;9.928;2022-12-01T06:20:06;31.17;;;18.35;;
5257;SDS011;2651;51.594;9.928;2022-12-01T06:21:09;33.22;;;18.25;;
5257;SDS011;2651;51.594;9.928;2022-12-01T06:22:11;35.85;;;19.30;;
5257;SDS011;2651;51.594;9.928;2022-12-01T06:23:12;27.90;;;17.58;;
5257;SDS011;2651;51.594;9.928;2022-12-01T06:24:14;32.30;;;18.48;;
5257;SDS011;2651;51.594;9.928;2022-12-01T06:25:15;32.50;;;18.60;;
5257;SDS011;2651;51.594;9.928;2022-12-01T06:26:17;32.03;;;17.70;;
5257;SDS011;2651;51.594;9.928;2022-12-01T06:27:19;32.15;;;18.48;;
5257;SDS011;2651;51.594;9.928;2022-12-01T06:28:21;33.45;;;19.00;;
5257;SDS011;2651;51.594;9.928;2022-12-01T06:29:22;31.83;;;17.45;;
5257;SDS011;2651;51.594;9.928;2022-12-01T06:30:24;37.35;;;18.60;;
5257;SDS011;2651;51.594;9.928;2022-12-01T06:31:26;36.33;;;19.13;;
5257;SDS011;2651;51.594;9.928;2022-12-01T06:32:27;34.28;;;18.40;;
5257;SDS011;2651;51.594;9.928;2022-12-01T06:33:29;37.40;;;18.70;;
5257;SDS011;2651;51.594;9.928;2022-12-01T06:34:31;37.92;;;18.05;;
5257;SDS011;2651;51.594;9.928;2022-12-01T06:35:33;34.22;;;19.63;;
5257;SDS011;2651;51.594;9.928;2022-12-01T06:36:35;36.63;;;19.98;;
5257;SDS011;2651;51.594;9.928;2022-12-01T06:37:37;39.70;;;20.38;;
5257;SDS011;2651;51.594;9.928;2022-12-01T06:38:38;37.70;;;20.40;;
5257;SDS011;2651;51.594;9.928;2022-12-01T06:39:40;35.00;;;19.10;;
5257;SDS011;2651;51.594;9.928;2022-12-01T06:40:42;37.38;;;20.00;;
5257;SDS011;2651;51.594;9.928;2022-12-01T06:41:45;36.58;;;20.77;;
5257;SDS011;2651;51.594;9.928;2022-12-01T06:42:47;39.10;;;18.85;;
5257;SDS011;2651;51.594;9.928;2022-12-01T06:43:49;34.80;;;19.05;;
5257;SDS011;2651;51.594;9.928;2022-12-01T06:44:51;36.38;;;19.23;;
5257;SDS011;2651;51.594;9.928;2022-12-01T06:45:52;36.55;;;18.20;;
5257;SDS011;2651;51.594;9.928;2022-12-01T06:47:01;35.60;;;18.63;;
5257;SDS011;2651;51.594;9.928;2022-12-01T06:48:03;38.13;;;21.02;;
5257;SDS011;2651;51.594;9.928;2022-12-01T06:49:05;34.67;;;19.58;;
5257;SDS011;2651;51.594;9.928;2022-12-01T06:50:10;40.13;;;20.50;;
5257;SDS011;2651;51.594;9.928;2022-12-01T06:51:12;38.10;;;20.55;;
5257;SDS011;2651;51.594;9.928;2022-12-01T06:52:14;37.05;;;20.65;;
5257;SDS011;2651;51.594;9.928;2022-12-01T06:53:16;52.97;;;25.25;;
5257;SDS011;2651;51.594;9.928;2022-12-01T06:54:18;35.45;;;19.75;;
5257;SDS011;2651;51.594;9.928;2022-12-01T06:55:21;37.20;;;20.13;;
5257;SDS011;2651;51.594;9.928;2022-12-01T06:56:23;32.67;;;19.27;;
5257;SDS011;2651;51.594;9.928;2022-12-01T06:57:26;36.88;;;20.70;;
5257;SDS011;2651;51.594;9.928;2022-12-01T06:58:28;58.67;;;26.25;;